Terminal Aerodrome Forecast
Issued by NWS

Home | Current Version | Previous Version | Text Only | Print | Product List | Glossary On
Versions: 1 2 3 4 5 6 7 8 9 10 11 12 13 14
000
FTUS42 TJSJ 300700 AAA
TAFJSJ
TAF AMD
TJSJ 300705Z 3007/3106 VRB04KT P6SM VCSH FEW030
      TEMPO 3007/3008 VRB10KT 5SM SHRA SCT030 BKN040
     FM301430 05011KT P6SM SCT040
     FM302200 09005KT P6SM FEW040=

USA.gov is the U.S. government's official web portal to all federal, state and local government web resources and services.